Time;durP1;ratioP1;P1;durP2;ratioP2;P2;SDS_P1;SDS_P2;PMS_P1;PMS_P2;Temp;Humidity;BMP_temperature;BMP_pressure;BME280_temperature;BME280_humidity;BME280_pressure;Samples;Min_cycle;Max_cycle;Signal;HPM_P1;HPM_P2
2023/04/22 10:25:29;;;;;;;8.02;1.83;;;;;;;23.27;41.33;100308.44;4999335;27;3216771;-47
2023/04/22 10:28:07;;;;;;;5.72;1.88;;;;;;;24.07;39.86;100305.31;5108932;28;20492;-49
2023/04/22 10:30:37;;;;;;;4.25;1.40;;;;;;;24.65;38.62;100306.22;5109723;28;20162;-46
2023/04/22 10:33:23;;;;;;;10.32;2.10;;;;;;;25.12;37.37;100304.44;5109651;28;20024;-48
2023/04/22 10:36:13;;;;;;;7.88;2.28;;;;;;;25.42;36.70;100310.53;5109534;28;20470;-49
2023/04/22 10:39:02;;;;;;;5.20;1.90;;;;;;;25.60;36.21;100310.47;5109082;28;20031;-46
2023/04/22 10:41:33;;;;;;;8.10;1.85;;;;;;;25.75;36.26;100306.88;5101385;28;20444;-46
2023/04/22 10:44:06;;;;;;;8.05;2.13;;;;;;;25.84;35.93;100302.47;5109022;28;20209;-49
2023/04/22 10:46:35;;;;;;;8.52;2.25;;;;;;;25.92;35.77;100309.41;5109454;28;20023;-45
2023/04/22 10:49:07;;;;;;;7.22;1.60;;;;;;;25.95;35.63;100313.78;5108876;28;20023;-49
2023/04/22 10:51:39;;;;;;;5.70;1.70;;;;;;;25.98;35.46;100311.13;5108671;28;20032;-49
2023/04/22 10:54:08;;;;;;;6.50;1.92;;;;;;;26.00;35.40;100314.63;5109605;28;20034;-48
2023/04/22 10:56:39;;;;;;;4.78;1.70;;;;;;;26.03;35.56;100317.25;5091562;28;20033;-46
2023/04/22 10:59:16;;;;;;;5.78;1.33;;;;;;;26.07;35.56;100316.31;5091272;28;20027;-47
2023/04/22 11:01:44;;;;;;;3.78;1.42;;;;;;;26.10;35.23;100318.09;5108946;28;20035;-49
2023/04/22 11:04:22;;;;;;;4.38;1.63;;;;;;;26.09;35.08;100313.72;5108796;28;20032;-45
2023/04/22 11:07:21;;;;;;;6.45;1.95;;;;;;;26.09;35.12;100321.59;5108524;28;20024;-50
2023/04/22 11:10:14;;;;;;;6.55;1.70;;;;;;;26.14;35.10;100321.59;5106125;28;20439;-45
2023/04/22 11:12:43;;;;;;;5.10;1.40;;;;;;;26.15;35.06;100331.22;5108610;28;20115;-47
2023/04/22 11:15:21;;;;;;;6.90;1.73;;;;;;;26.17;35.20;100326.84;5108944;28;20142;-47
2023/04/22 11:17:57;;;;;;;5.53;1.30;;;;;;;26.16;35.41;100328.56;5104940;28;20070;-45
2023/04/22 11:20:26;;;;;;;6.40;1.60;;;;;;;26.20;35.08;100332.06;5108659;28;20031;-45
2023/04/22 11:22:57;;;;;;;8.00;1.92;;;;;;;26.20;35.12;100334.72;5108443;28;20111;-48
2023/04/22 11:25:26;;;;;;;7.40;1.63;;;;;;;26.21;34.77;100337.31;5108641;28;20066;-47
2023/04/22 11:27:55;;;;;;;8.55;1.80;;;;;;;26.20;35.07;100332.94;5108001;28;20089;-45
2023/04/22 11:30:24;;;;;;;4.80;1.77;;;;;;;26.27;34.85;100333.75;5104397;28;20024;-50
2023/04/22 11:32:57;;;;;;;7.30;1.98;;;;;;;26.28;34.77;100327.63;5108103;28;20027;-45
2023/04/22 11:35:31;;;;;;;6.50;1.58;;;;;;;26.27;35.18;100335.53;5103146;28;20078;-49
2023/04/22 11:38:02;;;;;;;8.25;1.58;;;;;;;26.28;34.90;100337.28;5072691;28;20032;-53
2023/04/22 11:40:32;;;;;;;6.68;2.30;;;;;;;26.32;35.10;100341.63;5095113;28;20040;-46
2023/04/22 11:43:02;;;;;;;5.93;1.90;;;;;;;26.34;34.77;100342.47;5094943;28;20036;-47
2023/04/22 11:45:32;;;;;;;5.82;1.75;;;;;;;26.35;34.89;100333.72;5094629;28;20032;-52
2023/04/22 11:48:00;;;;;;;7.25;1.50;;;;;;;26.32;35.04;100334.63;5090505;28;20055;-50
2023/04/22 11:50:30;;;;;;;8.00;1.92;;;;;;;26.29;35.20;100339.88;5094879;28;20046;-50
2023/04/22 11:53:00;;;;;;;6.68;1.80;;;;;;;26.32;34.91;100349.50;5094759;28;20501;-46
2023/04/22 11:55:33;;;;;;;8.38;1.92;;;;;;;26.36;34.92;100340.72;5093694;28;20036;-48
2023/04/22 11:58:15;;;;;;;7.10;1.98;;;;;;;26.39;34.81;100345.97;5072374;28;20024;-46
2023/04/22 12:00:47;;;;;;;6.82;1.50;;;;;;;26.39;34.97;100346.81;5094434;28;20035;-50
2023/04/22 12:03:22;;;;;;;6.05;1.92;;;;;;;26.37;34.89;100347.72;5094698;28;20023;-48
2023/04/22 12:05:55;;;;;;;8.98;2.33;;;;;;;26.34;34.96;100347.75;5076101;28;20028;-45
2023/04/22 12:08:25;;;;;;;5.40;1.60;;;;;;;26.33;35.09;100346.88;5089897;28;20106;-47
2023/04/22 12:10:59;;;;;;;8.77;1.65;;;;;;;26.32;35.27;100339.88;5094723;28;20393;-46
2023/04/22 12:13:30;;;;;;;7.40;1.92;;;;;;;26.31;35.09;100343.38;5093884;28;20027;-46
2023/04/22 12:16:03;;;;;;;5.07;1.85;;;;;;;26.33;35.14;100346.00;5094127;28;20058;-49
2023/04/22 12:18:33;;;;;;;5.25;1.50;;;;;;;26.40;34.66;100342.44;5075738;28;20119;-45
2023/04/22 12:21:12;;;;;;;10.05;2.30;;;;;;;26.40;34.73;100342.44;5094401;28;20049;-45
2023/04/22 12:23:53;;;;;;;6.68;2.50;;;;;;;26.41;35.03;100351.19;5094237;28;20056;-46
2023/04/22 12:26:23;;;;;;;9.07;2.15;;;;;;;26.47;34.62;100352.06;5095037;28;20020;-46
2023/04/22 12:28:52;;;;;;;9.43;2.55;;;;;;;26.47;34.76;100356.44;5076917;28;20535;-46
2023/04/22 12:31:20;;;;;;;6.63;1.90;;;;;;;26.47;34.78;100353.78;5094674;28;20036;-46
2023/04/22 12:33:49;;;;;;;7.32;1.83;;;;;;;26.47;35.04;100364.31;5094959;28;20053;-46
2023/04/22 12:36:19;;;;;;;6.50;1.80;;;;;;;26.50;34.77;100361.66;5094738;28;20070;-45
2023/04/22 12:38:48;;;;;;;11.20;2.42;;;;;;;26.50;34.79;100359.03;5094730;28;20020;-46
2023/04/22 12:41:16;;;;;;;11.15;2.22;;;;;;;26.51;34.99;100360.78;5094177;28;20035;-46
2023/04/22 12:43:44;;;;;;;12.45;2.97;;;;;;;26.51;34.72;100366.03;5076320;28;20461;-45
2023/04/22 12:46:13;;;;;;;8.07;2.30;;;;;;;26.49;34.89;100363.41;5094378;28;20046;-46
2023/04/22 12:48:42;;;;;;;6.47;1.95;;;;;;;26.50;34.79;100369.56;5093947;28;20024;-45
2023/04/22 12:51:10;;;;;;;11.82;2.70;;;;;;;26.53;34.97;100378.28;5094448;28;20118;-45
2023/04/22 12:53:39;;;;;;;10.32;2.17;;;;;;;26.54;34.91;100373.91;5081879;28;20024;-45
2023/04/22 12:56:07;;;;;;;8.55;2.25;;;;;;;26.54;34.89;100369.53;5074185;28;20021;-47
2023/04/22 12:58:36;;;;;;;6.57;1.85;;;;;;;26.53;35.19;100365.13;5056420;28;20031;-47
2023/04/22 13:01:05;;;;;;;7.32;2.17;;;;;;;26.53;35.08;100366.91;5074043;28;20042;-45
2023/04/22 13:03:33;;;;;;;6.32;1.85;;;;;;;26.52;35.08;100362.53;5073824;28;20031;-45
2023/04/22 13:06:02;;;;;;;6.82;1.90;;;;;;;26.55;34.96;100365.16;5074035;28;20428;-46
2023/04/22 13:08:30;;;;;;;6.70;2.33;;;;;;;26.58;35.00;100364.25;5073960;28;20027;-45
2023/04/22 13:10:59;;;;;;;10.18;2.30;;;;;;;26.60;34.97;100360.72;5073755;28;20056;-46
2023/04/22 13:13:29;;;;;;;6.43;1.65;;;;;;;26.60;34.75;100367.75;5073729;28;20086;-49
2023/04/22 13:15:57;;;;;;;8.55;1.98;;;;;;;26.60;34.77;100375.63;5073517;28;20540;-46
2023/04/22 13:18:26;;;;;;;6.07;2.03;;;;;;;26.62;35.07;100376.50;5073716;28;20086;-49
2023/04/22 13:20:56;;;;;;;8.23;2.20;;;;;;;26.61;35.10;100385.28;5055754;28;20032;-47
2023/04/22 13:23:24;;;;;;;6.93;2.08;;;;;;;26.61;34.85;100377.38;5073164;28;20032;-45
2023/04/22 13:25:54;;;;;;;9.50;2.45;;;;;;;26.57;35.08;100378.28;5055916;28;20036;-45
2023/04/22 13:28:22;;;;;;;6.38;1.80;;;;;;;26.60;35.01;100376.50;5073217;28;20470;-45
2023/04/22 13:30:51;;;;;;;6.97;2.05;;;;;;;26.62;34.94;100381.75;5073208;28;20469;-48
2023/04/22 13:33:19;;;;;;;6.05;1.88;;;;;;;26.60;34.84;100365.97;5073536;28;20039;-53
2023/04/22 13:35:48;;;;;;;8.77;2.40;;;;;;;26.61;34.94;100372.13;5055497;28;20462;-45
2023/04/22 13:38:16;;;;;;;11.57;2.53;;;;;;;26.61;34.92;100369.50;5073685;28;20036;-46
2023/04/22 13:40:44;;;;;;;8.13;2.10;;;;;;;26.68;34.85;100373.78;5073739;28;20489;-46
2023/04/22 13:43:11;;;;;;;7.70;1.73;;;;;;;26.68;34.68;100363.28;5072203;28;20039;-49
2023/04/22 13:45:41;;;;;;;8.15;1.92;;;;;;;26.71;34.76;100368.53;5092759;28;20107;-50
2023/04/22 13:48:09;;;;;;;9.35;2.70;;;;;;;26.73;34.82;100369.38;5092816;28;20496;-47
2023/04/22 13:50:41;;;;;;;8.95;2.65;;;;;;;26.75;34.57;100369.34;5093243;28;20473;-46
2023/04/22 13:53:10;;;;;;;9.02;2.13;;;;;;;26.77;34.65;100367.59;5093065;28;20031;-46
2023/04/22 13:55:39;;;;;;;7.88;2.33;;;;;;;26.79;34.66;100371.09;5093021;28;20031;-46
2023/04/22 13:58:07;;;;;;;9.38;2.28;;;;;;;26.81;34.60;100372.84;5075498;28;20024;-47
2023/04/22 14:00:35;;;;;;;8.98;2.63;;;;;;;26.85;34.48;100376.34;5086422;28;20031;-49
2023/04/22 14:03:03;;;;;;;10.88;3.13;;;;;;;26.73;34.70;100373.75;5088450;28;20024;-48
2023/04/22 14:05:31;;;;;;;11.68;3.35;;;;;;;26.80;34.60;100379.03;5091802;28;20036;-48
2023/04/22 14:07:59;;;;;;;9.50;2.58;;;;;;;26.84;34.78;100380.72;5089317;28;20085;-50
2023/04/22 14:10:27;;;;;;;12.27;2.50;;;;;;;26.84;34.61;100385.13;5087915;28;20089;-44
2023/04/22 14:12:54;;;;;;;10.05;2.80;;;;;;;26.87;34.72;100384.22;5089290;28;20020;-44
2023/04/22 14:15:22;;;;;;;11.13;2.80;;;;;;;26.85;34.69;100371.06;5091074;28;20061;-47
2023/04/22 14:17:49;;;;;;;6.85;2.33;;;;;;;26.90;34.96;100368.41;5091415;28;20040;-48
2023/04/22 14:20:17;;;;;;;10.90;2.72;;;;;;;26.84;34.58;100357.03;5072056;28;20032;-46
2023/04/22 14:22:45;;;;;;;8.63;2.33;;;;;;;26.85;34.64;100376.34;5090882;28;20062;-47
2023/04/22 14:25:13;;;;;;;8.07;2.50;;;;;;;26.85;34.58;100368.44;5090949;28;20093;-48
2023/04/22 14:27:41;;;;;;;7.22;2.70;;;;;;;26.82;34.55;100371.09;5085748;28;20024;-46
2023/04/22 14:30:08;;;;;;;8.95;2.40;;;;;;;26.82;34.70;100384.25;5091180;28;20199;-45
2023/04/22 14:32:36;;;;;;;11.15;2.90;;;;;;;26.85;34.73;100386.88;5090554;28;20035;-48
2023/04/22 14:35:04;;;;;;;6.75;2.17;;;;;;;26.80;34.70;100386.91;5072984;28;20481;-46
2023/04/22 14:37:32;;;;;;;7.65;2.50;;;;;;;26.81;34.72;100374.63;5085949;28;20469;-44
2023/04/22 14:39:59;;;;;;;12.43;3.28;;;;;;;26.79;34.78;100379.91;5091226;28;20540;-49
2023/04/22 14:42:27;;;;;;;9.77;3.08;;;;;;;26.86;34.77;100388.63;5089093;28;20035;-48
2023/04/22 14:44:54;;;;;;;7.88;2.58;;;;;;;26.95;34.59;100377.13;5065563;28;20028;-44
2023/04/22 14:47:22;;;;;;;9.43;2.75;;;;;;;26.95;34.53;100377.13;5088469;28;20056;-47
2023/04/22 14:49:49;;;;;;;8.38;2.80;;;;;;;26.95;34.71;100379.78;5070437;28;20054;-48
2023/04/22 14:52:16;;;;;;;13.30;3.63;;;;;;;26.93;34.63;100390.28;5087465;28;20032;-49
2023/04/22 14:54:43;;;;;;;9.30;2.97;;;;;;;26.94;34.58;100380.66;5090769;28;20499;-48
2023/04/22 14:57:11;;;;;;;14.38;3.33;;;;;;;26.96;34.63;100386.78;5090700;28;20075;-48
2023/04/22 14:59:39;;;;;;;11.50;2.60;;;;;;;26.93;34.46;100385.03;5090462;28;20074;-45
2023/04/22 15:02:06;;;;;;;9.82;2.63;;;;;;;27.00;34.61;100385.84;5089143;28;20032;-45
2023/04/22 15:04:34;;;;;;;11.38;2.70;;;;;;;27.59;33.42;100383.53;5090953;28;20035;-45
2023/04/22 15:07:01;;;;;;;7.35;2.42;;;;;;;27.95;32.77;100388.38;5088208;28;20056;-46
2023/04/22 15:09:28;;;;;;;20.77;3.67;;;;;;;28.32;32.29;100382.63;5090441;28;20028;-48
2023/04/22 15:11:58;;;;;;;10.38;2.83;;;;;;;28.74;31.37;100389.06;5074900;28;20058;-45
2023/04/22 15:14:25;;;;;;;12.13;3.03;;;;;;;28.36;32.27;100383.47;5094812;28;20063;-49
2023/04/22 15:16:52;;;;;;;8.95;2.47;;;;;;;28.41;32.10;100386.03;5094440;28;20024;-46
2023/04/22 15:19:20;;;;;;;8.63;2.95;;;;;;;28.08;32.47;100378.53;5092200;28;20032;-45
2023/04/22 15:21:48;;;;;;;10.80;3.42;;;;;;;27.70;33.14;100380.75;5093531;28;20381;-46
2023/04/22 15:24:15;;;;;;;10.85;3.10;;;;;;;27.41;33.67;100384.59;5094076;28;20047;-51
2023/04/22 15:26:42;;;;;;;9.32;3.00;;;;;;;27.29;33.81;100377.69;5085907;28;20458;-46
2023/04/22 15:29:10;;;;;;;13.07;3.63;;;;;;;27.20;34.13;100385.69;5076383;28;20539;-49
2023/04/22 15:31:38;;;;;;;10.27;2.75;;;;;;;27.12;34.19;100376.97;5092238;28;20024;-45
2023/04/22 15:34:06;;;;;;;9.20;2.45;;;;;;;27.05;34.27;100378.78;5090594;28;20054;-44
2023/04/22 15:36:35;;;;;;;11.07;3.10;;;;;;;27.04;34.25;100370.91;5068204;28;20036;-44
2023/04/22 15:39:04;;;;;;;11.23;3.00;;;;;;;27.01;34.31;100369.16;5094461;28;20077;-44
2023/04/22 15:41:33;;;;;;;11.32;3.20;;;;;;;26.99;34.43;100365.66;5075011;28;20111;-44
2023/04/22 15:44:01;;;;;;;10.35;3.05;;;;;;;26.98;34.48;100370.06;5060777;28;20392;-48
2023/04/22 15:46:31;;;;;;;11.15;3.40;;;;;;;26.96;34.50;100377.13;5085310;28;20020;-45
2023/04/22 15:49:00;;;;;;;11.18;2.92;;;;;;;26.91;34.52;100380.69;5074013;28;20085;-45
2023/04/22 15:51:28;;;;;;;9.65;3.75;;;;;;;26.90;34.52;100379.78;5073987;28;20024;-45
2023/04/22 15:53:57;;;;;;;12.57;3.97;;;;;;;26.92;34.50;100387.69;5075681;28;20033;-45
2023/04/22 15:56:25;;;;;;;8.52;2.85;;;;;;;26.89;34.57;100387.72;5073711;28;20482;-44
2023/04/22 15:58:52;;;;;;;10.77;3.63;;;;;;;26.85;34.57;100381.59;5083417;28;20102;-45
2023/04/22 16:01:20;;;;;;;7.07;2.28;;;;;;;26.84;34.64;100383.34;5093531;28;20106;-44
2023/04/22 16:03:48;;;;;;;14.65;4.35;;;;;;;26.83;34.56;100373.69;5091602;28;20027;-45
2023/04/22 16:06:16;;;;;;;11.20;3.70;;;;;;;26.86;34.56;100393.00;5071490;28;20055;-45
2023/04/22 16:08:44;;;;;;;9.25;3.28;;;;;;;26.81;34.60;100387.78;5093811;28;20424;-46
2023/04/22 16:11:13;;;;;;;12.65;3.80;;;;;;;26.78;34.78;100399.19;5093651;28;20446;-46
2023/04/22 16:13:40;;;;;;;13.40;3.45;;;;;;;26.74;34.85;100394.81;5091262;28;20043;-46
2023/04/22 16:16:07;;;;;;;12.50;3.47;;;;;;;26.78;34.61;100396.53;5085782;28;20020;-45
2023/04/22 16:18:34;;;;;;;11.45;2.85;;;;;;;26.78;34.66;100398.28;5093373;28;20020;-45
2023/04/22 16:21:03;;;;;;;10.52;3.58;;;;;;;26.78;34.91;100390.38;5093783;28;20051;-45
2023/04/22 16:23:30;;;;;;;10.13;3.40;;;;;;;26.78;34.86;100393.03;5072663;28;20044;-45
2023/04/22 16:25:57;;;;;;;12.25;3.55;;;;;;;26.80;34.78;100388.66;5093196;28;20060;-45
2023/04/22 16:28:24;;;;;;;13.23;3.88;;;;;;;26.79;34.79;100389.50;5089137;28;20089;-46
2023/04/22 16:30:51;;;;;;;18.27;3.60;;;;;;;26.76;34.81;100390.41;5092879;28;20028;-46
2023/04/22 16:33:19;;;;;;;13.68;4.32;;;;;;;26.77;34.87;100384.28;5090820;28;20024;-49
2023/04/22 16:35:46;;;;;;;10.13;3.03;;;;;;;26.70;34.81;100387.81;5093183;28;20020;-44
2023/04/22 16:38:13;;;;;;;15.52;3.88;;;;;;;26.73;34.94;100381.66;5093231;28;20024;-46
2023/04/22 16:40:40;;;;;;;14.95;3.92;;;;;;;26.71;35.02;100380.81;5093378;28;20028;-45
2023/04/22 16:43:08;;;;;;;12.73;3.95;;;;;;;26.74;34.75;100386.03;5072857;28;20065;-49
2023/04/22 16:45:35;;;;;;;12.05;3.05;;;;;;;26.74;34.87;100388.66;5089184;28;20028;-45
2023/04/22 16:48:02;;;;;;;12.35;3.35;;;;;;;26.68;34.83;100390.47;5088321;28;20036;-47
2023/04/22 16:50:29;;;;;;;14.70;3.80;;;;;;;26.72;34.96;100395.72;5074911;28;20174;-47
2023/04/22 16:52:56;;;;;;;13.48;3.97;;;;;;;26.65;34.63;100384.34;5090326;28;20035;-46
2023/04/22 16:55:24;;;;;;;12.52;3.72;;;;;;;26.71;34.94;100396.59;5092770;28;20366;-46
2023/04/22 16:57:51;;;;;;;10.73;3.58;;;;;;;26.65;34.96;100385.22;5092634;28;20031;-45
2023/04/22 17:00:22;;;;;;;14.45;4.05;;;;;;;26.61;35.00;100386.13;5093918;28;20024;-48
2023/04/22 17:02:50;;;;;;;12.95;3.72;;;;;;;26.60;35.06;100389.63;5094225;28;20028;-46
2023/04/22 17:05:17;;;;;;;13.13;3.53;;;;;;;26.59;35.08;100387.03;5093406;28;20111;-47
2023/04/22 17:07:46;;;;;;;13.07;3.67;;;;;;;26.51;35.16;100385.31;5094066;28;20028;-47
2023/04/22 17:10:13;;;;;;;11.25;3.20;;;;;;;26.51;35.13;100387.09;5059151;28;20022;-48
2023/04/22 17:12:41;;;;;;;12.73;3.45;;;;;;;26.47;35.20;100385.34;5093995;28;20086;-47
2023/04/22 17:15:08;;;;;;;11.63;3.58;;;;;;;26.45;35.26;100385.38;5093781;28;20068;-50
2023/04/22 17:17:36;;;;;;;13.98;4.03;;;;;;;26.45;35.20;100385.38;5092754;28;20024;-47
2023/04/22 17:20:05;;;;;;;14.30;3.92;;;;;;;26.40;35.14;100384.53;5093234;28;20028;-51
2023/04/22 17:22:33;;;;;;;13.38;3.78;;;;;;;26.40;35.44;100392.41;5093641;28;20024;-48
2023/04/22 17:25:01;;;;;;;13.63;3.78;;;;;;;26.36;35.40;100394.19;5075332;28;20050;-49
2023/04/22 17:27:28;;;;;;;16.27;4.30;;;;;;;26.38;35.34;100392.44;5093600;28;20020;-49
2023/04/22 17:29:56;;;;;;;12.57;4.07;;;;;;;26.39;35.46;100398.56;5092735;28;20474;-45
2023/04/22 17:32:25;;;;;;;11.55;3.45;;;;;;;26.33;35.42;100398.59;5093278;28;20032;-45
2023/04/22 17:34:53;;;;;;;12.38;3.85;;;;;;;26.33;35.45;100393.31;5093092;28;20051;-47
2023/04/22 17:37:20;;;;;;;14.57;3.72;;;;;;;26.30;35.30;100388.09;5075505;28;20028;-44
2023/04/22 17:39:49;;;;;;;12.13;3.42;;;;;;;26.30;35.34;100385.47;5093558;28;20470;-48
2023/04/22 17:42:18;;;;;;;16.98;4.75;;;;;;;26.39;35.22;100388.03;5074261;28;20040;-46
2023/04/22 17:44:46;;;;;;;11.85;3.97;;;;;;;26.29;35.28;100389.00;5073290;28;20058;-45
2023/04/22 17:47:15;;;;;;;18.50;4.70;;;;;;;26.34;35.20;100384.56;5055166;28;20051;-46
2023/04/22 17:49:43;;;;;;;10.90;2.97;;;;;;;26.27;35.38;100386.34;5083735;28;20020;-46
2023/04/22 17:52:11;;;;;;;13.20;4.28;;;;;;;26.29;35.23;100384.59;5092577;28;20028;-49
2023/04/22 17:54:40;;;;;;;16.52;4.00;;;;;;;26.36;35.09;100380.16;5093252;28;20454;-44
2023/04/22 17:57:11;;;;;;;14.63;4.03;;;;;;;26.28;35.11;100377.59;5092470;28;20028;-44
2023/04/22 17:59:39;;;;;;;11.95;3.85;;;;;;;26.19;35.50;100372.38;5093198;28;20052;-44
2023/04/22 18:02:10;;;;;;;14.07;4.13;;;;;;;26.17;35.52;100374.16;5092968;28;20386;-49
2023/04/22 18:04:38;;;;;;;10.80;3.88;;;;;;;26.17;35.61;100382.91;5093417;28;20028;-47
2023/04/22 18:07:07;;;;;;;11.73;4.15;;;;;;;26.27;35.23;100382.88;5093238;28;20385;-50
2023/04/22 18:09:35;;;;;;;12.90;3.60;;;;;;;26.16;35.50;100381.16;5074885;28;20027;-44
2023/04/22 18:12:04;;;;;;;21.75;4.63;;;;;;;26.11;35.74;100388.22;5092593;28;20034;-44
2023/04/22 18:14:33;;;;;;;18.48;4.35;;;;;;;26.15;35.67;100383.78;5075204;28;20107;-46
2023/04/22 18:17:01;;;;;;;16.80;4.90;;;;;;;26.14;35.63;100390.81;5092925;28;20028;-45
2023/04/22 18:19:30;;;;;;;15.77;4.18;;;;;;;26.14;35.73;100393.44;5093001;28;20031;-46
2023/04/22 18:21:58;;;;;;;15.18;3.85;;;;;;;26.13;35.58;100396.97;5092411;28;20024;-46
2023/04/22 18:24:27;;;;;;;15.38;3.85;;;;;;;26.10;35.39;100394.31;5074938;28;20105;-44
2023/04/22 18:26:55;;;;;;;13.75;4.45;;;;;;;26.18;35.30;100392.53;5092958;28;20385;-47
2023/04/22 18:29:24;;;;;;;17.83;4.85;;;;;;;26.19;35.21;100398.69;5093006;28;20031;-45
2023/04/22 18:31:53;;;;;;;20.10;4.82;;;;;;;26.14;35.48;100397.81;5093084;28;20069;-45
2023/04/22 18:34:21;;;;;;;16.88;4.30;;;;;;;26.16;35.33;100403.94;5092615;28;20024;-45
2023/04/22 18:36:49;;;;;;;17.65;4.63;;;;;;;26.07;35.51;100404.84;5092991;28;20065;-50
2023/04/22 18:39:17;;;;;;;15.70;4.68;;;;;;;26.05;35.86;100404.84;5092819;28;20039;-44
2023/04/22 18:41:46;;;;;;;14.25;4.78;;;;;;;26.02;35.91;100394.34;5093103;28;20457;-44
2023/04/22 18:44:15;;;;;;;16.40;4.15;;;;;;;26.05;35.64;100399.59;5092053;28;20036;-45
2023/04/22 18:46:44;;;;;;;19.00;4.75;;;;;;;26.09;35.75;100405.69;5095956;28;20020;-49
2023/04/22 18:49:12;;;;;;;24.08;6.22;;;;;;;26.10;35.96;100394.31;5096865;28;20032;-46
2023/04/22 18:51:41;;;;;;;21.02;5.68;;;;;;;26.05;36.09;100388.19;5079179;28;20024;-49
2023/04/22 18:54:09;;;;;;;19.65;5.90;;;;;;;26.05;36.12;100393.44;5078192;28;20064;-45
2023/04/22 18:56:38;;;;;;;17.30;5.88;;;;;;;26.11;36.01;100388.22;5096868;28;20473;-45
2023/04/22 18:59:07;;;;;;;24.15;6.63;;;;;;;26.06;36.08;100392.56;5078531;28;20051;-44
2023/04/22 19:01:36;;;;;;;26.92;6.32;;;;;;;26.00;36.13;100388.22;5096648;28;20110;-45
2023/04/22 19:04:06;;;;;;;20.75;6.03;;;;;;;26.03;36.09;100395.22;5078128;28;20036;-52
2023/04/22 19:06:34;;;;;;;21.25;6.18;;;;;;;26.04;36.06;100383.81;5096331;28;20068;-46
2023/04/22 19:09:03;;;;;;;29.23;7.05;;;;;;;26.08;36.02;100385.56;5096570;28;20028;-45
2023/04/22 19:11:32;;;;;;;20.52;5.97;;;;;;;26.06;35.85;100387.31;5096503;28;20044;-52
2023/04/22 19:14:01;;;;;;;21.52;7.15;;;;;;;25.98;36.06;100389.13;5095788;28;20415;-45
2023/04/22 19:16:30;;;;;;;20.08;6.45;;;;;;;25.96;36.01;100388.25;5096390;28;20032;-45
2023/04/22 19:18:59;;;;;;;14.38;4.95;;;;;;;25.96;36.30;100390.88;5096190;28;20443;-45
2023/04/22 19:24:13;;;;;;;19.40;5.55;;;;;;;25.92;36.23;100390.00;5013609;26;20054;-48
2023/04/22 19:26:41;;;;;;;19.17;6.20;;;;;;;25.93;36.12;100386.50;5036194;28;20025;-45
2023/04/22 19:29:14;;;;;;;20.30;5.43;;;;;;;25.87;36.29;100382.13;5035977;28;20061;-50
2023/04/22 19:31:44;;;;;;;22.75;5.90;;;;;;;25.88;36.40;100381.25;5034635;28;20056;-51
2023/04/22 19:34:13;;;;;;;15.98;5.18;;;;;;;25.86;36.51;100383.00;5035635;28;20037;-45
2023/04/22 19:36:41;;;;;;;21.05;5.28;;;;;;;25.85;36.17;100383.03;5034615;28;20029;-44
2023/04/22 19:39:10;;;;;;;21.58;5.53;;;;;;;25.81;36.47;100384.81;5035337;28;20068;-45
2023/04/22 19:41:39;;;;;;;19.25;5.28;;;;;;;25.83;36.18;100388.28;5036020;28;20521;-45
2023/04/22 19:44:08;;;;;;;20.00;5.82;;;;;;;25.78;36.44;100382.19;5034017;28;20467;-50
2023/04/22 19:46:37;;;;;;;16.60;4.60;;;;;;;25.77;36.23;100383.06;5035801;28;20036;-45
2023/04/22 19:49:05;;;;;;;20.23;5.25;;;;;;;25.79;36.20;100391.81;5034380;28;20037;-47
2023/04/22 19:51:34;;;;;;;26.27;5.50;;;;;;;25.76;36.28;100387.44;5035368;28;20021;-44
2023/04/22 19:54:04;;;;;;;16.10;5.22;;;;;;;25.77;36.26;100388.31;5033873;28;20030;-47
